Time;durP1;ratioP1;P1;durP2;ratioP2;P2;SDS_P1;SDS_P2;PMS_P1;PMS_P2;Temp;Humidity;BMP_temperature;BMP_pressure;BME280_temperature;BME280_humidity;BME280_pressure;Samples;Min_cycle;Max_cycle;Signal;HPM_P1;HPM_P2
2022/07/11 00:01:59;;;;;;;3.70;2.43;;;21.80;74.80;;;;;;6210488;23;20376;-68
2022/07/11 00:04:31;;;;;;;3.60;2.30;;;21.80;74.80;;;;;;6161558;23;20390;-69
2022/07/11 00:07:01;;;;;;;2.37;1.97;;;21.80;74.70;;;;;;6187326;23;20403;-69
2022/07/11 00:09:27;;;;;;;2.90;2.57;;;21.80;74.70;;;;;;6135496;23;20490;-73
2022/07/11 00:11:54;;;;;;;2.50;2.30;;;21.80;74.70;;;;;;6158025;23;20743;-71
2022/07/11 00:14:21;;;;;;;2.77;1.90;;;21.80;74.70;;;;;;6183526;23;20429;-71
2022/07/11 00:16:51;;;;;;;4.60;1.90;;;21.80;74.70;;;;;;6183678;23;20392;-73
2022/07/11 00:19:17;;;;;;;2.73;2.53;;;21.80;74.70;;;;;;6178350;23;20416;-73
2022/07/11 00:21:47;;;;;;;2.50;2.30;;;21.80;74.80;;;;;;6129088;23;20416;-73
2022/07/11 00:24:17;;;;;;;2.73;1.93;;;21.80;74.90;;;;;;6153077;23;20387;-73
2022/07/11 00:26:43;;;;;;;2.13;1.93;;;21.80;74.80;;;;;;6153354;23;20383;-73
2022/07/11 00:29:09;;;;;;;3.70;2.50;;;21.80;74.70;;;;;;6153691;23;20411;-73
2022/07/11 00:31:35;;;;;;;2.13;1.90;;;21.80;74.80;;;;;;6153564;23;20435;-73
2022/07/11 00:34:02;;;;;;;3.27;2.27;;;21.80;74.90;;;;;;6153713;23;20398;-73
2022/07/11 00:36:31;;;;;;;1.97;1.60;;;21.80;74.90;;;;;;6154510;23;20469;-73
2022/07/11 00:38:58;;;;;;;3.80;2.00;;;21.80;75.00;;;;;;6153298;23;20404;-73
2022/07/11 00:41:29;;;;;;;2.90;1.90;;;21.70;74.90;;;;;;6153172;23;20446;-73
2022/07/11 00:43:59;;;;;;;3.33;2.20;;;21.80;75.10;;;;;;6153740;23;20364;-73
2022/07/11 00:46:26;;;;;;;4.37;2.00;;;21.80;75.00;;;;;;6153908;23;20941;-73
2022/07/11 00:48:53;;;;;;;3.10;2.00;;;21.80;74.90;;;;;;6129142;23;20412;-73
2022/07/11 00:51:25;;;;;;;2.07;1.87;;;21.80;75.10;;;;;;6153014;23;20428;-73
2022/07/11 00:53:53;;;;;;;2.60;2.37;;;21.70;75.00;;;;;;6178309;23;20469;-73
2022/07/11 00:56:29;;;;;;;2.50;2.30;;;21.80;75.10;;;;;;6129125;23;20404;-73
2022/07/11 00:58:59;;;;;;;3.93;2.70;;;21.70;75.00;;;;;;6154749;23;20400;-73
2022/07/11 01:01:28;;;;;;;2.00;1.73;;;21.70;75.00;;;;;;6153820;23;20384;-73
2022/07/11 01:03:56;;;;;;;2.70;2.33;;;21.70;75.00;;;;;;6128768;23;20886;-73
2022/07/11 01:06:23;;;;;;;2.97;1.97;;;21.70;75.00;;;;;;6153664;23;20364;-73
2022/07/11 01:08:52;;;;;;;2.13;1.93;;;21.70;75.00;;;;;;6128986;23;21004;-73
2022/07/11 01:11:18;;;;;;;2.80;2.33;;;21.70;75.10;;;;;;6178263;23;20435;-73
2022/07/11 01:13:45;;;;;;;2.90;2.20;;;21.70;75.10;;;;;;6128920;23;20467;-70
2022/07/11 01:16:19;;;;;;;2.20;2.00;;;21.70;75.10;;;;;;6153501;23;20411;-70
2022/07/11 01:18:51;;;;;;;2.30;1.77;;;21.70;75.20;;;;;;6174979;23;20444;-71
2022/07/11 01:21:19;;;;;;;2.23;2.00;;;21.70;75.20;;;;;;6151131;23;20454;-71
2022/07/11 01:23:50;;;;;;;2.50;2.00;;;21.70;75.30;;;;;;6150921;23;20384;-71
2022/07/11 01:26:17;;;;;;;2.50;2.30;;;21.70;75.30;;;;;;6152699;23;20383;-70
2022/07/11 01:28:44;;;;;;;3.30;1.97;;;21.70;75.40;;;;;;6125200;23;20773;-71
2022/07/11 01:31:12;;;;;;;4.03;2.10;;;21.70;75.40;;;;;;6150878;23;20430;-71
2022/07/11 01:33:39;;;;;;;2.43;2.20;;;21.70;75.40;;;;;;6123521;23;20795;-71
2022/07/11 01:36:05;;;;;;;3.87;2.50;;;21.70;75.40;;;;;;6150310;23;20873;-71
2022/07/11 01:38:32;;;;;;;2.80;1.70;;;21.60;75.30;;;;;;6125317;23;20792;-70
2022/07/11 01:40:58;;;;;;;2.50;1.77;;;21.60;75.30;;;;;;6150307;23;20376;-71
2022/07/11 01:43:26;;;;;;;2.20;1.93;;;21.60;75.30;;;;;;6150186;23;20502;-71
2022/07/11 01:45:53;;;;;;;2.00;1.70;;;21.60;75.30;;;;;;6151989;23;20381;-71
2022/07/11 01:48:20;;;;;;;2.33;1.90;;;21.60;75.40;;;;;;6151704;23;20431;-71
2022/07/11 01:50:47;;;;;;;3.23;2.90;;;21.60;75.40;;;;;;6150541;23;20372;-71
2022/07/11 01:53:16;;;;;;;2.90;1.90;;;21.60;75.40;;;;;;6150183;23;20391;-70
2022/07/11 01:55:42;;;;;;;2.10;1.90;;;21.60;75.50;;;;;;6151621;23;20372;-71
2022/07/11 01:58:09;;;;;;;2.17;1.90;;;21.60;75.50;;;;;;6149405;23;20550;-70
2022/07/11 02:00:37;;;;;;;2.53;1.83;;;21.60;75.50;;;;;;6125857;23;20773;-70
2022/07/11 02:03:05;;;;;;;3.10;2.10;;;21.60;75.50;;;;;;6151636;23;20427;-70
2022/07/11 02:05:31;;;;;;;4.87;2.27;;;21.60;75.50;;;;;;6125492;23;20720;-70
2022/07/11 02:08:17;;;;;;;3.30;1.90;;;21.60;75.60;;;;;;6174488;23;20411;-70
2022/07/11 02:10:51;;;;;;;2.10;2.00;;;21.60;75.60;;;;;;6149721;23;20432;-70
2022/07/11 02:13:20;;;;;;;3.00;2.20;;;21.50;75.40;;;;;;6124876;23;20403;-70
2022/07/11 02:15:47;;;;;;;2.27;1.87;;;21.50;75.50;;;;;;6151926;23;20451;-70
2022/07/11 02:18:17;;;;;;;3.40;2.03;;;21.50;75.50;;;;;;6151056;23;20408;-70
2022/07/11 02:20:48;;;;;;;2.30;1.90;;;21.50;75.60;;;;;;6149692;23;20419;-70
2022/07/11 02:23:18;;;;;;;2.17;1.97;;;21.50;75.60;;;;;;6124316;23;20723;-70
2022/07/11 02:25:49;;;;;;;2.50;2.20;;;21.50;75.60;;;;;;6125940;23;20367;-70
2022/07/11 02:28:18;;;;;;;3.10;2.17;;;21.50;75.50;;;;;;6151203;23;20762;-70
2022/07/11 02:30:45;;;;;;;3.73;2.30;;;21.50;75.60;;;;;;6151330;23;20405;-70
2022/07/11 02:33:15;;;;;;;2.90;1.93;;;21.50;75.70;;;;;;6147496;23;20436;-70
2022/07/11 02:35:47;;;;;;;2.60;2.00;;;21.50;75.70;;;;;;6149211;23;20400;-71
2022/07/11 02:38:16;;;;;;;2.00;1.80;;;21.40;75.40;;;;;;6174675;23;20494;-70
2022/07/11 02:40:44;;;;;;;2.33;2.13;;;21.50;75.50;;;;;;6150982;23;20411;-71
2022/07/11 02:43:10;;;;;;;4.23;2.13;;;21.50;75.70;;;;;;6150342;23;20463;-71
2022/07/11 02:45:36;;;;;;;3.23;2.20;;;21.40;75.60;;;;;;6147730;23;20923;-71
2022/07/11 02:48:02;;;;;;;2.13;1.93;;;21.50;75.70;;;;;;6151623;23;20372;-71
2022/07/11 02:50:29;;;;;;;2.40;1.87;;;21.40;75.60;;;;;;6153928;23;20411;-72
2022/07/11 02:52:55;;;;;;;3.00;1.90;;;21.40;75.70;;;;;;6127755;23;20442;-71
2022/07/11 02:55:21;;;;;;;2.30;2.10;;;21.40;75.70;;;;;;6127499;23;20412;-71
2022/07/11 02:57:47;;;;;;;3.73;2.20;;;21.40;75.80;;;;;;6128266;23;20396;-70
2022/07/11 03:00:16;;;;;;;2.17;1.97;;;21.40;75.80;;;;;;6154015;23;20494;-72
2022/07/11 03:02:42;;;;;;;2.57;1.53;;;21.40;75.80;;;;;;6153980;23;20437;-71
2022/07/11 03:05:08;;;;;;;2.27;2.07;;;21.40;75.90;;;;;;6152531;23;20407;-71
2022/07/11 03:07:37;;;;;;;2.30;2.10;;;21.40;75.90;;;;;;6152679;23;20376;-70
2022/07/11 03:10:03;;;;;;;2.10;1.90;;;21.40;75.80;;;;;;6152602;23;20819;-72
2022/07/11 03:12:29;;;;;;;2.37;1.70;;;21.40;75.90;;;;;;6127952;23;20765;-71
2022/07/11 03:14:55;;;;;;;3.63;2.00;;;21.40;75.90;;;;;;6127583;23;20388;-71
2022/07/11 03:17:24;;;;;;;2.90;2.00;;;21.40;75.90;;;;;;6152541;23;20372;-71
2022/07/11 03:19:53;;;;;;;3.07;2.10;;;21.40;76.00;;;;;;6156289;23;20404;-70
2022/07/11 03:22:19;;;;;;;2.40;2.20;;;21.40;75.90;;;;;;6154713;23;20396;-71
2022/07/11 03:24:45;;;;;;;2.50;2.30;;;21.40;76.00;;;;;;6179441;23;20433;-71
2022/07/11 03:27:13;;;;;;;2.57;2.00;;;21.40;76.10;;;;;;6179126;23;21082;-71
2022/07/11 03:29:40;;;;;;;3.30;2.30;;;21.40;76.20;;;;;;6154083;23;20403;-71
2022/07/11 03:32:07;;;;;;;2.40;2.10;;;21.40;76.30;;;;;;6154374;23;20927;-71
2022/07/11 03:34:35;;;;;;;2.63;1.80;;;21.40;76.20;;;;;;6130006;23;20381;-71
2022/07/11 03:37:04;;;;;;;3.13;2.00;;;21.40;76.30;;;;;;6156036;23;20411;-70
2022/07/11 03:39:30;;;;;;;2.40;2.07;;;21.40;76.40;;;;;;6154197;23;20433;-71
2022/07/11 03:41:56;;;;;;;2.10;2.00;;;21.30;76.40;;;;;;6155844;23;20404;-70
2022/07/11 03:44:24;;;;;;;2.20;2.10;;;21.30;76.40;;;;;;6153980;23;20386;-70
2022/07/11 03:46:56;;;;;;;2.03;1.90;;;21.30;76.50;;;;;;6155813;23;20380;-71
2022/07/11 03:49:21;;;;;;;1.90;1.80;;;21.30;76.50;;;;;;6154151;23;20403;-71
2022/07/11 03:51:47;;;;;;;3.30;2.23;;;21.40;76.60;;;;;;6179205;23;20428;-70
2022/07/11 03:54:14;;;;;;;2.10;1.90;;;21.30;76.50;;;;;;6155790;23;20360;-70
2022/07/11 03:56:40;;;;;;;2.13;1.93;;;21.30;76.50;;;;;;6154079;23;20803;-71
2022/07/11 03:59:09;;;;;;;1.90;1.80;;;21.30;76.60;;;;;;6153932;23;20403;-71
2022/07/11 04:01:37;;;;;;;2.43;2.23;;;21.30;76.60;;;;;;6129649;23;20975;-71
2022/07/11 04:04:08;;;;;;;2.60;2.10;;;21.30;77.50;;;;;;6129408;23;20855;-71
2022/07/11 04:06:36;;;;;;;2.37;2.00;;;21.30;76.70;;;;;;6155586;23;20464;-70
2022/07/11 04:09:02;;;;;;;3.37;2.53;;;21.30;76.90;;;;;;6155263;23;20411;-71
2022/07/11 04:11:29;;;;;;;3.10;2.03;;;21.30;76.90;;;;;;6153807;23;20511;-71
2022/07/11 04:13:54;;;;;;;2.17;1.90;;;21.30;76.70;;;;;;6178428;23;20412;-71
2022/07/11 04:16:21;;;;;;;1.87;1.73;;;21.30;76.90;;;;;;6155589;23;20393;-70
2022/07/11 04:18:49;;;;;;;2.30;1.70;;;21.30;76.90;;;;;;6153887;23;20414;-71
2022/07/11 04:21:18;;;;;;;3.50;2.33;;;21.30;76.90;;;;;;6154151;23;20449;-71
2022/07/11 04:23:44;;;;;;;2.27;2.03;;;21.30;76.80;;;;;;6155353;23;20439;-71
2022/07/11 04:26:10;;;;;;;2.50;1.83;;;21.30;76.90;;;;;;6155485;23;20367;-71
2022/07/11 04:28:36;;;;;;;1.90;1.70;;;21.30;76.90;;;;;;6104601;23;20403;-70
2022/07/11 04:31:02;;;;;;;2.90;2.13;;;21.30;76.80;;;;;;6153608;23;20513;-71
2022/07/11 04:33:30;;;;;;;2.10;1.80;;;21.30;76.90;;;;;;6155435;23;20377;-70
2022/07/11 04:35:56;;;;;;;2.10;1.90;;;21.30;76.90;;;;;;6154193;23;20377;-70
2022/07/11 04:38:23;;;;;;;2.10;1.83;;;21.30;76.90;;;;;;6155122;23;20438;-74
2022/07/11 04:40:52;;;;;;;2.90;1.80;;;21.20;76.80;;;;;;6155025;23;20371;-72
2022/07/11 04:43:18;;;;;;;2.13;1.93;;;21.20;76.80;;;;;;6127782;23;20904;-73
2022/07/11 04:45:44;;;;;;;1.90;1.80;;;21.20;76.60;;;;;;6128501;23;20168;-73
2022/07/11 04:48:13;;;;;;;1.77;1.60;;;21.30;76.80;;;;;;6155031;23;20851;-73
2022/07/11 04:50:46;;;;;;;2.13;1.80;;;21.20;76.70;;;;;;6155089;23;20946;-73
2022/07/11 04:53:12;;;;;;;1.90;1.60;;;21.20;76.70;;;;;;6153229;23;20421;-73
2022/07/11 04:55:41;;;;;;;2.43;1.73;;;21.20;76.60;;;;;;6153445;23;20368;-73
2022/07/11 04:58:11;;;;;;;1.90;1.80;;;21.20;76.60;;;;;;6179047;23;20458;-73
2022/07/11 05:00:38;;;;;;;2.00;1.70;;;21.20;76.50;;;;;;6129609;23;20416;-73
2022/07/11 05:03:04;;;;;;;2.00;1.70;;;21.20;76.70;;;;;;6179130;23;20930;-73
2022/07/11 05:05:33;;;;;;;2.70;1.90;;;21.20;76.60;;;;;;6129695;23;20405;-72
2022/07/11 05:08:00;;;;;;;1.87;1.60;;;21.20;76.60;;;;;;6154417;23;20379;-73
2022/07/11 05:10:26;;;;;;;2.60;1.90;;;21.20;76.60;;;;;;6179305;23;20782;-74
2022/07/11 05:12:54;;;;;;;1.50;1.40;;;21.20;76.60;;;;;;6156044;23;20419;-74
2022/07/11 05:15:20;;;;;;;2.17;1.97;;;21.20;76.50;;;;;;6130042;23;20415;-74
2022/07/11 05:17:46;;;;;;;1.53;1.40;;;21.20;76.60;;;;;;6179146;23;20383;-74
2022/07/11 05:20:12;;;;;;;1.97;1.77;;;21.20;76.60;;;;;;6154172;23;20432;-73
2022/07/11 05:22:38;;;;;;;2.07;1.73;;;21.20;76.60;;;;;;6130023;23;20388;-73
2022/07/11 05:25:06;;;;;;;1.90;1.80;;;21.20;76.60;;;;;;6154495;23;20374;-74
2022/07/11 05:27:32;;;;;;;2.60;2.10;;;21.20;76.60;;;;;;6155962;23;20569;-74
2022/07/11 05:30:03;;;;;;;2.00;1.70;;;21.20;76.70;;;;;;6154145;23;20906;-74
2022/07/11 05:32:31;;;;;;;2.10;2.00;;;21.20;76.70;;;;;;6155165;23;20443;-74
2022/07/11 05:35:02;;;;;;;3.47;2.13;;;21.20;76.70;;;;;;6178889;23;20397;-73
2022/07/11 05:37:28;;;;;;;2.03;1.87;;;21.20;76.80;;;;;;6129561;23;20415;-74
2022/07/11 05:39:56;;;;;;;2.10;1.90;;;21.20;76.80;;;;;;6155776;23;20477;-74
2022/07/11 05:42:23;;;;;;;2.23;2.03;;;21.20;76.90;;;;;;6153822;23;20377;-73
2022/07/11 05:44:49;;;;;;;2.50;2.30;;;21.20;76.90;;;;;;6178655;23;20383;-73
2022/07/11 05:47:16;;;;;;;2.50;2.30;;;21.20;76.90;;;;;;6154280;23;20377;-74
2022/07/11 05:49:45;;;;;;;3.40;2.53;;;21.20;76.90;;;;;;6154526;23;20784;-74
2022/07/11 05:52:13;;;;;;;3.00;2.00;;;21.20;76.90;;;;;;6179020;23;20474;-74
2022/07/11 05:54:41;;;;;;;2.13;1.93;;;21.20;76.90;;;;;;6154391;23;20377;-73
2022/07/11 05:57:07;;;;;;;3.27;2.13;;;21.20;76.80;;;;;;6155738;23;20369;-74
2022/07/11 05:59:35;;;;;;;1.93;1.83;;;21.20;76.90;;;;;;6153855;23;20421;-74
2022/07/11 06:02:02;;;;;;;2.10;2.00;;;21.20;76.90;;;;;;6153948;23;20400;-74
2022/07/11 06:04:29;;;;;;;3.00;2.23;;;21.20;76.90;;;;;;6129803;23;20428;-74
2022/07/11 06:06:57;;;;;;;2.37;2.17;;;21.20;76.90;;;;;;6155290;23;20375;-74
2022/07/11 06:09:25;;;;;;;2.20;2.00;;;21.20;76.90;;;;;;6178088;23;20439;-74
2022/07/11 06:11:51;;;;;;;2.00;1.90;;;21.20;76.90;;;;;;6129420;23;20419;-74
2022/07/11 06:14:20;;;;;;;1.80;1.70;;;21.20;76.90;;;;;;6154955;23;20371;-74
2022/07/11 06:16:47;;;;;;;3.27;1.90;;;21.20;76.90;;;;;;6153793;23;20403;-74
2022/07/11 06:19:14;;;;;;;1.77;1.67;;;21.20;77.00;;;;;;6178432;23;20895;-73
2022/07/11 06:21:40;;;;;;;2.83;2.17;;;21.20;76.90;;;;;;6153843;23;20447;-73
2022/07/11 06:24:06;;;;;;;2.33;2.13;;;21.20;77.00;;;;;;6152542;23;20897;-74
2022/07/11 06:26:33;;;;;;;2.40;2.20;;;21.10;77.00;;;;;;6154870;23;20405;-74
2022/07/11 06:29:02;;;;;;;2.40;2.17;;;21.20;77.10;;;;;;6153148;23;20429;-74
2022/07/11 06:31:30;;;;;;;2.40;2.20;;;21.20;77.10;;;;;;6155142;23;20411;-74
2022/07/11 06:33:57;;;;;;;1.90;1.70;;;21.20;77.20;;;;;;6153679;23;20942;-74
2022/07/11 06:36:26;;;;;;;2.93;2.20;;;21.20;77.30;;;;;;6128523;23;20380;-74
2022/07/11 06:38:53;;;;;;;2.13;1.93;;;21.10;77.30;;;;;;6157022;23;20457;-75
2022/07/11 06:41:27;;;;;;;2.30;2.10;;;21.10;77.10;;;;;;6154774;23;20391;-73
2022/07/11 06:43:53;;;;;;;2.10;1.63;;;21.10;77.30;;;;;;6178088;23;20379;-74
2022/07/11 06:46:22;;;;;;;2.40;2.20;;;21.10;77.30;;;;;;6153282;23;20874;-74
2022/07/11 06:48:47;;;;;;;2.50;1.83;;;21.10;77.30;;;;;;6128454;23;20482;-73
2022/07/11 06:51:14;;;;;;;2.90;2.13;;;21.10;77.50;;;;;;6153697;23;20439;-75
2022/07/11 06:53:42;;;;;;;2.63;2.30;;;21.10;77.50;;;;;;6153717;23;20423;-74
2022/07/11 06:56:08;;;;;;;2.90;2.60;;;21.10;77.50;;;;;;6154925;23;20380;-73
2022/07/11 06:58:36;;;;;;;3.17;2.97;;;21.10;77.70;;;;;;6153363;23;20376;-73
2022/07/11 07:01:09;;;;;;;2.87;2.57;;;21.10;77.70;;;;;;6128845;23;20456;-73
2022/07/11 07:03:35;;;;;;;5.90;3.27;;;21.10;77.80;;;;;;6153494;23;20862;-74
2022/07/11 07:06:01;;;;;;;2.90;2.70;;;21.10;77.80;;;;;;6154929;23;20422;-74
2022/07/11 07:08:29;;;;;;;3.10;2.80;;;21.10;78.00;;;;;;6153198;23;20782;-73
2022/07/11 07:11:15;;;;;;;3.27;2.70;;;21.10;78.00;;;;;;6152994;23;20522;-73
2022/07/11 07:13:45;;;;;;;3.60;2.63;;;21.10;78.00;;;;;;6154643;23;20384;-73
2022/07/11 07:16:13;;;;;;;4.67;3.20;;;21.10;78.10;;;;;;6178222;23;20374;-73
2022/07/11 07:18:45;;;;;;;3.60;3.17;;;21.10;78.00;;;;;;6154186;23;20402;-73
2022/07/11 07:21:11;;;;;;;3.47;3.17;;;21.10;78.20;;;;;;6153114;23;20386;-74
2022/07/11 07:23:39;;;;;;;3.47;2.70;;;21.10;78.10;;;;;;6152977;23;20703;-74
2022/07/11 07:26:08;;;;;;;3.27;2.97;;;21.10;78.30;;;;;;6152626;23;20449;-74
2022/07/11 07:28:34;;;;;;;3.80;2.83;;;21.20;78.50;;;;;;6176707;23;20393;-74
2022/07/11 07:31:06;;;;;;;3.70;3.00;;;21.10;78.50;;;;;;6153337;23;20418;-74
2022/07/11 07:33:31;;;;;;;4.23;3.37;;;21.10;78.50;;;;;;6152451;23;20364;-74
2022/07/11 07:35:59;;;;;;;3.20;2.80;;;21.10;78.50;;;;;;6176999;23;20697;-74
2022/07/11 07:38:27;;;;;;;3.63;3.30;;;21.10;78.80;;;;;;6153677;23;20379;-74
2022/07/11 07:40:53;;;;;;;3.93;3.20;;;21.10;78.80;;;;;;6153973;23;20368;-74
2022/07/11 07:43:19;;;;;;;3.67;3.37;;;21.10;79.00;;;;;;6153948;23;20307;-74
2022/07/11 07:45:45;;;;;;;3.80;3.50;;;21.10;79.10;;;;;;6152452;23;20379;-74
2022/07/11 07:48:13;;;;;;;4.27;3.60;;;21.10;79.00;;;;;;6127328;23;20404;-74
2022/07/11 07:50:39;;;;;;;3.80;3.07;;;21.20;79.10;;;;;;6127778;23;20443;-74
2022/07/11 07:53:07;;;;;;;3.73;3.43;;;21.20;79.20;;;;;;6127934;23;20472;-75
2022/07/11 07:55:36;;;;;;;3.77;3.40;;;21.20;79.20;;;;;;6154039;23;20402;-75
2022/07/11 07:58:02;;;;;;;4.40;3.53;;;21.20;79.30;;;;;;6152581;23;20375;-74
2022/07/11 08:03:15;;;;;;;6.33;4.10;;;21.20;79.40;;;;;;6154026;23;20368;-74
2022/07/11 08:05:43;;;;;;;4.83;3.63;;;21.20;79.70;;;;;;6178195;23;20387;-74
2022/07/11 08:08:14;;;;;;;3.60;3.30;;;21.20;80.00;;;;;;6153759;23;20454;-74
2022/07/11 08:10:42;;;;;;;4.20;3.80;;;21.20;80.20;;;;;;6178542;23;20821;-74
2022/07/11 08:13:08;;;;;;;3.87;3.53;;;21.20;80.40;;;;;;6153924;23;20412;-74
2022/07/11 08:15:36;;;;;;;3.60;3.40;;;21.20;80.20;;;;;;6154052;23;20375;-74
2022/07/11 08:18:05;;;;;;;5.00;3.37;;;21.20;80.20;;;;;;6155616;23;20455;-74
2022/07/11 08:20:31;;;;;;;4.40;3.90;;;21.20;80.20;;;;;;6154156;23;20424;-74
2022/07/11 08:23:01;;;;;;;4.70;3.47;;;21.20;80.00;;;;;;6153879;23;20377;-75
2022/07/11 08:25:28;;;;;;;4.13;3.77;;;21.20;80.10;;;;;;6167640;23;20455;-72
2022/07/11 08:27:56;;;;;;;5.10;4.37;;;21.20;79.90;;;;;;6184419;23;20573;-72
2022/07/11 08:30:22;;;;;;;4.27;3.97;;;21.20;80.10;;;;;;6184828;23;20710;-72
2022/07/11 08:32:56;;;;;;;3.70;3.40;;;21.20;80.20;;;;;;6173734;23;20411;-71
2022/07/11 08:35:24;;;;;;;3.93;3.63;;;21.20;80.00;;;;;;6159258;23;20371;-72
2022/07/11 08:37:53;;;;;;;3.90;3.60;;;21.20;79.80;;;;;;6184480;23;20806;-72
2022/07/11 08:40:21;;;;;;;4.60;4.20;;;21.20;79.70;;;;;;6183363;23;20398;-72
2022/07/11 08:42:47;;;;;;;4.60;4.20;;;21.20;80.00;;;;;;6158560;23;20491;-72
2022/07/11 08:45:19;;;;;;;3.50;3.20;;;21.20;80.00;;;;;;6158500;23;20870;-72
2022/07/11 08:47:45;;;;;;;4.97;3.93;;;21.20;79.90;;;;;;6181947;23;20815;-72
2022/07/11 08:50:16;;;;;;;4.20;3.80;;;21.30;80.20;;;;;;6208150;23;20421;-72
2022/07/11 08:52:42;;;;;;;3.80;3.30;;;21.30;80.20;;;;;;6184575;23;20913;-72
2022/07/11 08:55:08;;;;;;;3.80;3.50;;;21.30;80.20;;;;;;6183417;23;20410;-72
2022/07/11 08:57:39;;;;;;;4.30;3.70;;;21.30;80.10;;;;;;6183001;23;20483;-72
2022/07/11 09:00:08;;;;;;;3.97;3.63;;;21.30;80.00;;;;;;6184573;23;20790;-72
2022/07/11 09:02:38;;;;;;;4.10;3.80;;;21.30;80.00;;;;;;6207764;23;20470;-72
2022/07/11 09:05:08;;;;;;;4.47;4.07;;;21.30;79.80;;;;;;6184714;23;20376;-72
2022/07/11 09:07:54;;;;;;;4.83;4.43;;;21.30;79.90;;;;;;6184607;23;20442;-72
2022/07/11 09:10:26;;;;;;;4.47;4.10;;;21.30;79.90;;;;;;6158674;23;20751;-72
2022/07/11 09:13:05;;;;;;;4.83;4.43;;;21.30;80.20;;;;;;6184887;23;20439;-72
2022/07/11 09:15:34;;;;;;;5.43;4.93;;;21.30;80.20;;;;;;6133553;23;20464;-72
2022/07/11 09:18:03;;;;;;;5.27;4.83;;;21.30;80.10;;;;;;6182745;23;20371;-72
2022/07/11 09:26:36;;;;;;;6.00;5.50;;;21.40;80.50;;;;;;6182728;23;20401;-71
2022/07/11 09:29:03;;;;;;;5.70;5.30;;;21.40;80.50;;;;;;6181201;23;20405;-72
2022/07/11 09:31:34;;;;;;;6.20;5.60;;;21.40;80.50;;;;;;6181795;23;20409;-72
2022/07/11 09:34:01;;;;;;;7.40;5.70;;;21.40;80.70;;;;;;6183954;23;20682;-71
2022/07/11 09:36:54;;;;;;;7.23;6.37;;;21.40;80.90;;;;;;6182467;23;20413;-72
2022/07/11 09:39:27;;;;;;;6.70;6.13;;;21.40;81.00;;;;;;6180623;23;20419;-72
2022/07/11 09:41:59;;;;;;;5.70;5.30;;;21.50;81.60;;;;;;6157984;23;20436;-72
2022/07/11 09:44:33;;;;;;;6.50;6.00;;;21.50;81.70;;;;;;6157865;23;20842;-72
2022/07/11 09:47:10;;;;;;;8.40;5.40;;;21.50;81.30;;;;;;6182717;23;20413;-72
2022/07/11 09:49:40;;;;;;;6.70;6.10;;;21.50;81.00;;;;;;6157831;23;20491;-72
2022/07/11 09:52:14;;;;;;;6.13;5.63;;;21.50;81.30;;;;;;6182448;23;20469;-72
2022/07/11 09:54:59;;;;;;;7.50;6.90;;;21.50;81.20;;;;;;6184146;23;20470;-72
2022/07/11 09:57:33;;;;;;;6.23;5.73;;;21.50;81.00;;;;;;6209365;23;20399;-74
2022/07/11 10:00:07;;;;;;;6.40;5.90;;;21.60;80.60;;;;;;6183024;23;20405;-73
2022/07/11 10:02:33;;;;;;;5.83;5.33;;;21.60;80.20;;;;;;6182323;23;20720;-70
2022/07/11 10:05:00;;;;;;;6.27;5.73;;;21.60;80.20;;;;;;6182766;23;20851;-72
2022/07/11 10:07:29;;;;;;;6.80;6.20;;;21.60;80.20;;;;;;6182894;23;20363;-72
2022/07/11 10:09:58;;;;;;;6.87;6.27;;;21.60;80.30;;;;;;6184349;23;20411;-72
2022/07/11 10:12:26;;;;;;;6.10;5.60;;;21.60;80.20;;;;;;6182495;23;20418;-71
2022/07/11 10:14:56;;;;;;;5.87;5.37;;;21.70;80.10;;;;;;6157711;23;20493;-72
2022/07/11 10:17:53;;;;;;;6.20;5.70;;;21.70;80.00;;;;;;6183883;23;20367;-72
2022/07/11 10:20:41;;;;;;;6.90;5.60;;;21.70;79.80;;;;;;6182755;23;20399;-72
2022/07/11 10:23:33;;;;;;;6.10;5.60;;;21.70;80.10;;;;;;6183809;23;20391;-71
2022/07/11 10:26:14;;;;;;;6.00;5.50;;;21.70;80.40;;;;;;6182669;23;20401;-72
2022/07/11 10:28:56;;;;;;;4.90;4.60;;;21.70;80.20;;;;;;6182108;23;20473;-72
2022/07/11 10:31:27;;;;;;;5.40;5.00;;;21.70;80.30;;;;;;6184607;23;20438;-73
2022/07/11 10:34:06;;;;;;;4.77;4.40;;;21.70;80.10;;;;;;6185975;23;20445;-71
2022/07/11 10:36:39;;;;;;;4.87;4.47;;;21.70;79.80;;;;;;6158409;23;20359;-72
2022/07/11 10:39:24;;;;;;;4.60;4.20;;;21.70;79.60;;;;;;6183070;23;20402;-72
2022/07/11 10:41:57;;;;;;;5.40;4.93;;;21.70;79.60;;;;;;6183281;23;20407;-71
2022/07/11 10:44:24;;;;;;;4.80;4.40;;;21.70;79.70;;;;;;6184293;23;20375;-71
2022/07/11 10:46:53;;;;;;;5.10;4.40;;;21.80;80.10;;;;;;6182348;23;20449;-76
2022/07/11 10:49:36;;;;;;;4.73;4.33;;;21.80;80.20;;;;;;6157190;23;20419;-76
2022/07/11 10:52:07;;;;;;;5.13;4.63;;;21.80;80.40;;;;;;6181246;23;20430;-75
2022/07/11 10:54:42;;;;;;;5.20;4.70;;;21.80;80.30;;;;;;6181691;23;20367;-71
2022/07/11 10:57:13;;;;;;;5.20;4.80;;;21.80;80.00;;;;;;6183637;23;20368;-71
2022/07/11 11:00:01;;;;;;;7.03;6.33;;;21.80;80.10;;;;;;6183233;23;20401;-72
2022/07/11 11:02:31;;;;;;;6.00;5.50;;;21.80;80.20;;;;;;6183066;23;20385;-71
2022/07/11 11:05:03;;;;;;;6.13;5.57;;;21.90;80.10;;;;;;6157056;23;20383;-71
2022/07/11 11:07:35;;;;;;;6.30;5.80;;;21.90;80.00;;;;;;6157096;23;20379;-71
2022/07/11 11:10:05;;;;;;;7.37;6.67;;;21.90;79.80;;;;;;6207606;23;20490;-71
2022/07/11 11:13:11;;;;;;;7.73;7.03;;;21.90;80.10;;;;;;6184011;23;20463;-71
2022/07/11 11:15:43;;;;;;;6.90;6.30;;;21.90;80.40;;;;;;6183763;23;20410;-71
2022/07/11 11:21:07;;;;;;;7.30;6.70;;;21.90;79.90;;;;;;6185522;23;20364;-72
2022/07/11 11:23:45;;;;;;;6.60;5.93;;;21.90;79.60;;;;;;6183610;23;20415;-71
2022/07/11 11:26:11;;;;;;;6.87;6.27;;;21.90;79.50;;;;;;6158939;23;20421;-72
2022/07/11 11:28:53;;;;;;;6.73;6.10;;;22.00;79.70;;;;;;6158280;23;20407;-72
2022/07/11 11:31:20;;;;;;;6.87;6.27;;;22.00;79.80;;;;;;6184752;23;20391;-72
2022/07/11 11:33:49;;;;;;;6.00;5.50;;;22.00;79.70;;;;;;6185013;23;20390;-71
2022/07/11 11:36:20;;;;;;;6.63;5.97;;;22.00;79.30;;;;;;6184732;23;20546;-71
2022/07/11 11:38:46;;;;;;;6.27;5.43;;;22.00;79.40;;;;;;6185340;23;20743;-72
2022/07/11 11:41:33;;;;;;;6.20;5.70;;;22.00;79.50;;;;;;6187109;23;20382;-71
2022/07/11 11:44:03;;;;;;;6.40;5.90;;;22.00;79.70;;;;;;6185659;23;20421;-71
2022/07/11 11:46:34;;;;;;;5.87;5.37;;;22.00;79.60;;;;;;6185310;23;20379;-72
2022/07/11 11:49:03;;;;;;;5.83;5.27;;;22.00;79.70;;;;;;6209884;23;20439;-71
2022/07/11 11:51:32;;;;;;;5.30;4.80;;;22.00;79.90;;;;;;6185610;23;20414;-72
2022/07/11 11:54:04;;;;;;;6.00;5.50;;;22.10;79.80;;;;;;6185262;23;20389;-72
2022/07/11 11:56:33;;;;;;;5.93;5.43;;;22.00;79.60;;;;;;6210661;23;20415;-72
2022/07/11 11:59:07;;;;;;;5.37;4.90;;;22.10;79.60;;;;;;6209430;23;20411;-69
2022/07/11 12:01:40;;;;;;;5.30;4.90;;;22.10;79.50;;;;;;6185340;23;20384;-69
2022/07/11 12:04:14;;;;;;;5.73;5.23;;;22.10;79.40;;;;;;6185992;23;20486;-69
2022/07/11 12:06:46;;;;;;;4.70;4.30;;;22.10;79.60;;;;;;6185905;23;20426;-69
2022/07/11 12:09:16;;;;;;;4.13;3.73;;;22.10;79.50;;;;;;6185195;23;20403;-69
2022/07/11 12:14:39;;;;;;;4.67;4.27;;;22.10;79.30;;;;;;6117436;23;20476;-70
2022/07/11 12:17:15;;;;;;;4.60;4.20;;;22.20;79.50;;;;;;6183856;23;20489;-70
2022/07/11 12:19:43;;;;;;;3.70;3.40;;;22.10;79.60;;;;;;6183751;23;20925;-69
2022/07/11 12:22:11;;;;;;;5.70;4.20;;;22.20;79.60;;;;;;6183376;23;20386;-69
2022/07/11 12:24:38;;;;;;;5.70;4.27;;;22.20;79.60;;;;;;6183615;23;20897;-69
2022/07/11 12:27:09;;;;;;;4.17;3.80;;;22.20;79.70;;;;;;6185362;23;20372;-69
2022/07/11 12:29:45;;;;;;;4.10;3.80;;;22.20;79.70;;;;;;6158798;23;20416;-69
2022/07/11 12:32:12;;;;;;;4.00;3.70;;;22.20;79.80;;;;;;6208204;23;20427;-69
2022/07/11 12:34:42;;;;;;;4.20;3.90;;;22.20;79.80;;;;;;6183590;23;20396;-69
2022/07/11 12:37:12;;;;;;;4.17;3.87;;;22.20;79.80;;;;;;6158413;23;20392;-70
2022/07/11 12:39:59;;;;;;;3.77;3.47;;;22.20;79.80;;;;;;6183406;23;20432;-70
2022/07/11 12:42:27;;;;;;;3.50;3.20;;;22.30;80.00;;;;;;6185400;23;20384;-70
2022/07/11 12:45:12;;;;;;;3.70;3.40;;;22.30;79.80;;;;;;6208171;23;20839;-69
2022/07/11 12:47:47;;;;;;;3.73;3.43;;;22.30;79.80;;;;;;6158820;23;20408;-69
2022/07/11 12:50:20;;;;;;;4.03;3.27;;;22.30;79.70;;;;;;6183070;23;20786;-70
2022/07/11 12:52:52;;;;;;;3.40;3.10;;;22.30;79.60;;;;;;6157587;23;20922;-70
2022/07/11 12:55:24;;;;;;;3.80;3.50;;;22.30;79.60;;;;;;6184859;23;20380;-69
2022/07/11 12:58:07;;;;;;;2.90;2.70;;;22.30;79.60;;;;;;6183345;23;20752;-70
2022/07/11 13:00:37;;;;;;;3.40;3.10;;;22.30;79.60;;;;;;6158435;23;20879;-69
2022/07/11 13:03:05;;;;;;;5.43;2.83;;;22.30;79.50;;;;;;6183683;23;20368;-69
2022/07/11 13:05:49;;;;;;;3.20;3.00;;;22.30;79.40;;;;;;6183629;23;20384;-69
2022/07/11 13:08:47;;;;;;;3.03;2.83;;;22.30;79.50;;;;;;6183596;23;20390;-70
2022/07/11 13:11:25;;;;;;;2.60;2.40;;;22.30;79.70;;;;;;6133919;23;20396;-70
2022/07/11 13:13:52;;;;;;;3.27;2.90;;;22.30;79.60;;;;;;6158576;23;20864;-69
2022/07/11 13:16:24;;;;;;;2.80;2.60;;;22.40;79.80;;;;;;6183356;23;20369;-69